createdAt,value
2023-09-18T00:00:36.521Z,99.90
2023-09-18T00:03:05.791Z,99.90
2023-09-18T00:05:35.203Z,99.90
2023-09-18T00:08:04.604Z,99.90
2023-09-18T00:10:33.521Z,99.90
2023-09-18T00:13:02.547Z,99.90
2023-09-18T00:15:32.269Z,99.90
2023-09-18T00:18:03.245Z,99.90
2023-09-18T00:20:32.370Z,99.90
2023-09-18T00:23:01.100Z,99.90
2023-09-18T00:25:30.173Z,99.90
2023-09-18T00:27:59.044Z,99.90
2023-09-18T00:30:27.933Z,99.90
2023-09-18T00:32:56.997Z,99.90
2023-09-18T00:35:27.465Z,99.90
2023-09-18T00:37:57.372Z,99.90
2023-09-18T00:40:26.311Z,99.90
2023-09-18T00:42:55.133Z,99.90
2023-09-18T00:45:24.196Z,99.90
2023-09-18T00:47:53.407Z,99.90
2023-09-18T00:50:23.081Z,99.90
2023-09-18T00:52:53.890Z,99.90
2023-09-18T00:55:23.293Z,99.90
2023-09-18T00:57:52.437Z,99.90
2023-09-18T01:00:21.462Z,99.90
2023-09-18T01:02:50.959Z,99.90
2023-09-18T01:05:21.418Z,99.90
2023-09-18T01:07:50.477Z,99.90
2023-09-18T01:10:24.115Z,99.90
2023-09-18T01:12:59.055Z,99.90
2023-09-18T01:15:32.895Z,99.90
2023-09-18T01:18:02.440Z,99.90
2023-09-18T01:20:31.359Z,99.90
2023-09-18T01:23:01.906Z,99.90
2023-09-18T01:25:33.435Z,99.90
2023-09-18T01:28:02.353Z,99.90
2023-09-18T01:30:31.449Z,99.90
2023-09-18T01:33:01.981Z,99.90
2023-09-18T01:35:32.704Z,99.90
2023-09-18T01:38:04.424Z,99.90
2023-09-18T01:40:34.651Z,99.90
2023-09-18T01:43:03.647Z,99.90
2023-09-18T01:45:33.980Z,99.90
2023-09-18T01:48:02.952Z,99.90
2023-09-18T01:50:31.813Z,99.90
2023-09-18T01:53:03.923Z,99.90
2023-09-18T01:55:33.846Z,99.90
2023-09-18T01:58:04.051Z,99.90
2023-09-18T02:00:33.748Z,99.90
2023-09-18T02:03:09.155Z,99.90
2023-09-18T02:05:51.872Z,99.90
2023-09-18T02:08:22.717Z,99.90
2023-09-18T02:10:51.864Z,99.90
2023-09-18T02:13:20.735Z,99.90
2023-09-18T02:15:49.484Z,99.90
2023-09-18T02:18:18.910Z,99.90
2023-09-18T02:20:50.153Z,99.90
2023-09-18T02:23:34.656Z,99.90
2023-09-18T02:26:03.615Z,99.90
2023-09-18T02:28:34.199Z,99.90
2023-09-18T02:31:03.995Z,99.90
2023-09-18T02:33:32.916Z,99.90
2023-09-18T02:36:01.782Z,99.90
2023-09-18T02:38:31.282Z,99.90
2023-09-18T02:41:02.463Z,99.90
2023-09-18T02:43:31.225Z,99.90
2023-09-18T02:46:00.243Z,99.90
2023-09-18T02:48:28.932Z,99.90
2023-09-18T02:50:58.246Z,99.90
2023-09-18T02:53:27.447Z,99.90
2023-09-18T02:55:59.030Z,99.90
2023-09-18T02:58:31.367Z,99.90
2023-09-18T03:01:01.051Z,99.90
2023-09-18T03:03:30.998Z,99.90
2023-09-18T03:06:04.206Z,99.90
2023-09-18T03:08:33.209Z,99.90
2023-09-18T03:11:02.840Z,99.90
2023-09-18T03:13:34.251Z,99.90
2023-09-18T03:16:03.677Z,99.90
2023-09-18T03:18:33.078Z,99.90
2023-09-18T03:21:02.482Z,99.90
2023-09-18T03:23:31.740Z,99.90
2023-09-18T03:26:01.027Z,99.90
2023-09-18T03:28:30.777Z,99.90
2023-09-18T03:31:02.146Z,99.90
2023-09-18T03:33:31.412Z,99.90
2023-09-18T03:36:00.608Z,99.90
2023-09-18T03:38:34.010Z,99.90
2023-09-18T03:41:03.509Z,99.90
2023-09-18T03:43:32.384Z,99.90
2023-09-18T03:46:08.121Z,99.90
2023-09-18T03:48:44.836Z,99.90
2023-09-18T03:51:17.392Z,99.90
2023-09-18T03:53:46.818Z,99.90
2023-09-18T03:56:15.773Z,99.90
2023-09-18T03:58:46.078Z,99.90
2023-09-18T04:01:16.704Z,99.90
2023-09-18T04:03:45.666Z,99.90
2023-09-18T04:06:14.813Z,99.90
2023-09-18T04:08:43.758Z,99.90
2023-09-18T04:11:13.130Z,99.90
2023-09-18T04:13:42.100Z,99.90
2023-09-18T04:16:14.057Z,99.90
2023-09-18T04:18:45.371Z,99.90
2023-09-18T04:21:14.421Z,99.90
2023-09-18T04:23:43.721Z,99.90
2023-09-18T04:26:17.246Z,99.90
2023-09-18T04:28:46.147Z,99.90
2023-09-18T04:31:15.267Z,99.90
2023-09-18T04:33:46.976Z,99.90
2023-09-18T04:36:16.311Z,99.90
2023-09-18T04:38:45.159Z,99.90
2023-09-18T04:41:14.028Z,99.90
2023-09-18T04:43:43.887Z,99.90
2023-09-18T04:46:12.755Z,99.90
2023-09-18T04:48:42.379Z,99.90
2023-09-18T04:51:13.342Z,99.90
2023-09-18T04:53:42.580Z,99.90
2023-09-18T04:56:12.241Z,99.90
2023-09-18T04:58:41.588Z,99.90
2023-09-18T05:01:12.449Z,99.90
2023-09-18T05:03:43.898Z,99.90
2023-09-18T05:06:14.802Z,99.90
2023-09-18T05:08:43.808Z,99.90
2023-09-18T05:11:14.834Z,99.90
2023-09-18T05:13:43.829Z,99.90
2023-09-18T05:16:12.772Z,99.90
2023-09-18T05:18:42.202Z,99.90
2023-09-18T05:21:13.583Z,99.90
2023-09-18T05:23:42.712Z,99.90
2023-09-18T05:26:12.325Z,99.90
2023-09-18T05:28:41.274Z,99.90
2023-09-18T05:31:10.526Z,99.90
2023-09-18T05:33:39.711Z,99.90
2023-09-18T05:36:08.661Z,99.90
2023-09-18T05:38:39.122Z,99.90
2023-09-18T05:41:08.204Z,99.90
2023-09-18T05:43:37.473Z,99.90
2023-09-18T05:46:06.255Z,99.90
2023-09-18T05:48:35.333Z,99.90
2023-09-18T05:51:05.140Z,99.90
2023-09-18T05:53:36.363Z,99.90
2023-09-18T05:56:06.988Z,99.90
2023-09-18T05:58:37.060Z,99.90
2023-09-18T06:01:05.833Z,99.90
2023-09-18T06:03:36.873Z,99.90
2023-09-18T06:06:06.259Z,99.90
2023-09-18T06:08:35.246Z,99.90
2023-09-18T06:11:05.436Z,99.90
2023-09-18T06:13:35.733Z,99.90
2023-09-18T06:16:08.635Z,99.90
2023-09-18T06:18:39.664Z,99.90
2023-09-18T06:21:08.562Z,99.90
2023-09-18T06:23:37.585Z,99.90
2023-09-18T06:26:08.195Z,99.90
2023-09-18T06:28:36.991Z,99.90
2023-09-18T06:31:05.956Z,99.90
2023-09-18T06:33:34.816Z,99.90
2023-09-18T06:36:04.652Z,99.90
2023-09-18T06:38:33.859Z,99.90
2023-09-18T06:41:02.596Z,99.90
2023-09-18T06:43:33.896Z,99.90
2023-09-18T06:46:02.949Z,99.90
2023-09-18T06:48:33.621Z,99.90
2023-09-18T06:51:02.554Z,99.90
2023-09-18T06:53:31.447Z,99.90
2023-09-18T06:56:00.534Z,99.90
2023-09-18T06:58:29.241Z,99.90
2023-09-18T07:01:00.196Z,99.90
2023-09-18T07:03:29.517Z,99.90
2023-09-18T07:05:58.494Z,99.90
2023-09-18T07:08:27.231Z,99.90
2023-09-18T07:10:56.165Z,99.90
2023-09-18T07:13:25.184Z,99.90
2023-09-18T07:15:54.186Z,99.90
2023-09-18T07:18:24.654Z,99.90
2023-09-18T07:20:53.439Z,99.90
2023-09-18T07:23:22.425Z,99.90
2023-09-18T07:25:51.459Z,99.90
2023-09-18T07:28:21.109Z,99.90
2023-09-18T07:30:50.185Z,99.90
2023-09-18T07:33:21.204Z,99.90
2023-09-18T07:35:53.463Z,99.90
2023-09-18T07:38:23.184Z,99.90
2023-09-18T07:40:51.976Z,99.90
2023-09-18T07:43:21.297Z,99.90
2023-09-18T07:45:52.497Z,99.90
2023-09-18T07:48:21.890Z,99.90
2023-09-18T07:50:52.845Z,99.90
2023-09-18T07:53:22.021Z,99.90
2023-09-18T07:55:57.667Z,99.90
2023-09-18T07:58:28.883Z,99.90
2023-09-18T08:00:58.703Z,99.90
2023-09-18T08:03:27.811Z,99.90
2023-09-18T08:05:58.804Z,99.90
2023-09-18T08:08:27.592Z,99.90
2023-09-18T08:10:56.475Z,99.90
2023-09-18T08:13:25.533Z,99.90
2023-09-18T08:15:54.911Z,99.90
2023-09-18T08:18:28.176Z,99.90
2023-09-18T08:20:59.571Z,99.90
2023-09-18T08:23:28.275Z,99.90
2023-09-18T08:25:58.764Z,99.90
2023-09-18T08:28:28.115Z,99.90
2023-09-18T08:30:56.926Z,99.90
2023-09-18T08:33:26.011Z,99.90
2023-09-18T08:35:54.879Z,99.90
2023-09-18T08:38:25.454Z,99.90
2023-09-18T08:40:57.601Z,99.90
2023-09-18T08:43:27.457Z,99.90
2023-09-18T08:46:02.422Z,99.90
2023-09-18T08:48:36.460Z,99.90
2023-09-18T08:51:06.927Z,99.90
2023-09-18T08:53:38.862Z,99.90
2023-09-18T08:56:08.615Z,99.90
2023-09-18T08:58:41.372Z,99.90
2023-09-18T09:01:11.149Z,99.90
2023-09-18T09:03:40.389Z,99.90
2023-09-18T09:06:10.668Z,99.90
2023-09-18T09:08:41.453Z,99.90
2023-09-18T09:11:11.004Z,99.90
2023-09-18T09:13:46.220Z,99.90
2023-09-18T09:16:16.445Z,99.90
2023-09-18T09:18:53.114Z,99.90
2023-09-18T09:21:22.407Z,99.90
2023-09-18T09:23:54.762Z,99.90
2023-09-18T09:26:25.431Z,99.90
2023-09-18T09:28:54.633Z,99.90
2023-09-18T09:31:29.007Z,99.90
2023-09-18T09:33:58.924Z,99.90
2023-09-18T09:36:27.607Z,99.90
2023-09-18T09:39:00.498Z,99.90
2023-09-18T09:41:30.441Z,99.90
2023-09-18T09:44:00.780Z,99.90
2023-09-18T09:46:29.994Z,99.90
2023-09-18T09:49:03.324Z,99.90
2023-09-18T09:51:32.559Z,99.90
2023-09-18T09:54:03.614Z,99.90
2023-09-18T09:56:47.198Z,99.90
2023-09-18T09:59:19.096Z,99.90
2023-09-18T10:01:50.535Z,99.90
2023-09-18T10:04:22.700Z,99.90
2023-09-18T10:06:55.171Z,99.90
2023-09-18T10:09:27.967Z,99.90
2023-09-18T10:11:59.914Z,99.90
2023-09-18T10:14:43.642Z,99.90
2023-09-18T10:17:22.301Z,99.90
2023-09-18T10:20:10.116Z,99.90
2023-09-18T10:22:44.088Z,99.90
2023-09-18T10:25:19.644Z,99.90
2023-09-18T10:27:50.582Z,99.90
2023-09-18T10:30:20.824Z,99.90
2023-09-18T10:32:49.902Z,99.50
2023-09-18T10:35:19.330Z,98.80
2023-09-18T10:37:52.290Z,98.60
2023-09-18T10:40:23.731Z,98.60
2023-09-18T10:42:56.672Z,98.60
2023-09-18T10:45:25.591Z,98.70
2023-09-18T10:47:55.090Z,97.80
2023-09-18T10:50:27.950Z,97.80
2023-09-18T10:52:59.227Z,98.00
2023-09-18T10:55:30.096Z,97.30
2023-09-18T10:58:01.863Z,97.10
2023-09-18T11:00:32.280Z,96.20
2023-09-18T11:03:18.986Z,96.40
2023-09-18T11:05:49.265Z,96.10
2023-09-18T11:08:29.112Z,96.60
2023-09-18T11:11:05.450Z,96.40
2023-09-18T11:13:37.773Z,96.50
2023-09-18T11:16:37.014Z,96.40
2023-09-18T11:19:13.368Z,97.00
2023-09-18T11:21:42.815Z,97.10
2023-09-18T11:24:19.801Z,97.20
2023-09-18T11:26:51.418Z,97.20
2023-09-18T11:29:24.817Z,96.90
2023-09-18T11:31:56.598Z,97.10
2023-09-18T11:34:29.436Z,96.60
2023-09-18T11:36:58.512Z,97.00
2023-09-18T11:39:38.753Z,97.70
2023-09-18T11:42:14.411Z,98.00
2023-09-18T11:44:45.440Z,98.30
2023-09-18T11:47:19.513Z,98.80
2023-09-18T11:49:56.233Z,99.00
2023-09-18T11:52:27.162Z,99.00
2023-09-18T11:54:57.926Z,99.00
2023-09-18T11:57:30.615Z,99.30
2023-09-18T12:00:12.677Z,99.90
2023-09-18T12:02:48.104Z,99.90
2023-09-18T12:05:18.685Z,99.90
2023-09-18T12:07:49.152Z,99.90
2023-09-18T12:10:19.329Z,99.90
2023-09-18T12:12:49.737Z,99.90
2023-09-18T12:15:22.151Z,99.90
2023-09-18T12:17:50.962Z,99.90
2023-09-18T12:20:21.276Z,99.90
2023-09-18T12:22:52.061Z,99.90
2023-09-18T12:25:21.093Z,99.90
2023-09-18T12:27:54.259Z,99.90
2023-09-18T12:30:24.695Z,99.90
2023-09-18T12:32:54.962Z,99.90
2023-09-18T12:35:26.587Z,99.90
2023-09-18T12:37:55.371Z,99.90
2023-09-18T12:40:28.603Z,99.90
2023-09-18T12:43:00.855Z,99.90
2023-09-18T12:45:31.719Z,99.90
2023-09-18T12:48:01.875Z,99.90
2023-09-18T12:50:30.871Z,99.90
2023-09-18T12:53:10.412Z,99.90
2023-09-18T12:55:40.080Z,99.90
2023-09-18T12:58:15.175Z,99.90
2023-09-18T13:00:50.702Z,99.90
2023-09-18T13:03:20.992Z,99.90
2023-09-18T13:05:50.735Z,99.90
2023-09-18T13:08:24.760Z,99.90
2023-09-18T13:10:53.899Z,99.90
2023-09-18T13:13:26.628Z,99.90
2023-09-18T13:16:00.978Z,99.90
2023-09-18T13:18:30.330Z,99.90
2023-09-18T13:20:59.999Z,99.90
2023-09-18T13:23:33.981Z,99.90
2023-09-18T13:26:04.335Z,99.90
2023-09-18T13:28:36.558Z,99.90
2023-09-18T13:31:08.092Z,99.90
2023-09-18T13:33:42.182Z,99.90
2023-09-18T13:36:11.526Z,99.90
2023-09-18T13:38:40.292Z,99.90
2023-09-18T13:41:09.104Z,99.90
2023-09-18T13:43:39.454Z,99.90
2023-09-18T13:46:08.351Z,99.90
2023-09-18T13:48:37.837Z,99.90
2023-09-18T13:51:06.780Z,99.90
2023-09-18T13:53:35.931Z,99.90
2023-09-18T13:56:05.251Z,99.90
2023-09-18T13:58:35.038Z,99.90
2023-09-18T14:01:06.527Z,99.90
2023-09-18T14:03:35.694Z,99.90
2023-09-18T14:06:07.109Z,99.90
2023-09-18T14:08:36.380Z,99.90
2023-09-18T14:11:05.870Z,99.90
2023-09-18T14:13:34.989Z,99.90
2023-09-18T14:16:05.726Z,99.90
2023-09-18T14:18:34.757Z,99.90
2023-09-18T14:21:04.205Z,99.90
2023-09-18T14:23:35.523Z,99.90
2023-09-18T14:26:04.616Z,99.90
2023-09-18T14:28:34.341Z,99.90
2023-09-18T14:31:07.227Z,99.90
2023-09-18T14:33:37.130Z,99.90
2023-09-18T14:36:06.601Z,99.90
2023-09-18T14:38:35.902Z,99.90
2023-09-18T14:41:04.684Z,99.90
2023-09-18T14:43:33.672Z,99.90
2023-09-18T14:46:04.460Z,99.90
2023-09-18T14:48:37.358Z,99.90
2023-09-18T14:51:08.316Z,99.90
2023-09-18T14:53:37.352Z,99.90
2023-09-18T14:56:06.956Z,99.90
2023-09-18T14:58:44.858Z,99.90
2023-09-18T15:01:15.954Z,99.90
2023-09-18T15:03:46.898Z,99.90
2023-09-18T15:06:18.645Z,99.90
2023-09-18T15:08:47.541Z,99.90
2023-09-18T15:11:18.712Z,99.90
2023-09-18T15:13:47.820Z,99.90
2023-09-18T15:16:17.757Z,99.90
2023-09-18T15:21:26.967Z,99.90
2023-09-18T15:23:55.829Z,99.90
2023-09-18T15:26:24.748Z,99.90
2023-09-18T15:28:53.724Z,99.90
2023-09-18T15:31:22.557Z,99.90
2023-09-18T15:33:56.331Z,99.90
2023-09-18T15:36:25.228Z,99.90
2023-09-18T15:38:56.234Z,99.90
2023-09-18T15:41:25.528Z,99.90
2023-09-18T15:43:54.291Z,99.90
2023-09-18T15:46:23.023Z,99.90
2023-09-18T15:48:53.461Z,99.90
2023-09-18T15:51:22.437Z,99.90
2023-09-18T15:53:51.537Z,99.90
2023-09-18T15:56:21.611Z,99.90
2023-09-18T15:58:50.697Z,99.90
2023-09-18T16:01:19.884Z,99.90
2023-09-18T16:03:49.464Z,99.90
2023-09-18T16:06:22.349Z,99.90
2023-09-18T16:08:51.386Z,99.90
2023-09-18T16:11:20.176Z,99.90
2023-09-18T16:13:49.031Z,99.90
2023-09-18T16:16:17.911Z,99.90
2023-09-18T16:18:48.359Z,99.90
2023-09-18T16:21:17.411Z,99.90
2023-09-18T16:23:48.055Z,99.90
2023-09-18T16:26:16.836Z,99.90
2023-09-18T16:28:48.344Z,99.90
2023-09-18T16:31:17.158Z,99.90
2023-09-18T16:33:46.940Z,99.90
2023-09-18T16:36:15.927Z,99.90
2023-09-18T16:38:45.189Z,99.90
2023-09-18T16:41:15.585Z,99.90
2023-09-18T16:43:44.370Z,99.90
2023-09-18T16:46:13.107Z,99.90
2023-09-18T16:48:42.037Z,99.90
2023-09-18T16:51:11.802Z,99.90
2023-09-18T16:53:41.246Z,99.90
2023-09-18T16:56:10.221Z,99.90
2023-09-18T16:58:40.661Z,99.90
2023-09-18T17:01:09.590Z,99.90
2023-09-18T17:03:39.952Z,99.90
2023-09-18T17:06:09.315Z,99.90
2023-09-18T17:08:38.226Z,99.90
2023-09-18T17:11:06.902Z,99.90
2023-09-18T17:13:36.226Z,99.90
2023-09-18T17:16:09.963Z,99.90
2023-09-18T17:18:39.820Z,99.90
2023-09-18T17:21:08.978Z,99.90
2023-09-18T17:23:37.878Z,99.90
2023-09-18T17:26:06.748Z,99.90
2023-09-18T17:28:35.805Z,99.90
2023-09-18T17:31:06.077Z,99.90
2023-09-18T17:33:35.020Z,99.90
2023-09-18T17:36:04.422Z,99.90
2023-09-18T17:38:33.256Z,99.90
2023-09-18T17:41:02.053Z,99.90
2023-09-18T17:43:30.817Z,99.90
2023-09-18T17:45:59.601Z,99.90
2023-09-18T17:48:30.748Z,99.90
2023-09-18T17:51:00.299Z,99.90
2023-09-18T17:53:29.351Z,99.90
2023-09-18T17:55:59.090Z,99.90
2023-09-18T17:58:28.148Z,99.90
2023-09-18T18:00:58.197Z,99.90
2023-09-18T18:03:27.472Z,99.90
2023-09-18T18:05:58.355Z,99.90
2023-09-18T18:08:35.404Z,99.90
2023-09-18T18:11:05.575Z,99.90
2023-09-18T18:13:34.713Z,99.90
2023-09-18T18:16:04.867Z,99.90
2023-09-18T18:18:33.730Z,99.90
2023-09-18T18:21:05.629Z,99.90
2023-09-18T18:23:34.436Z,99.90
2023-09-18T18:26:05.518Z,99.90
2023-09-18T18:28:34.712Z,99.90
2023-09-18T18:31:03.744Z,99.90
2023-09-18T18:33:32.711Z,99.90
2023-09-18T18:36:01.830Z,99.90
2023-09-18T18:38:32.252Z,99.90
2023-09-18T18:41:01.919Z,99.90
2023-09-18T18:43:37.362Z,99.90
2023-09-18T18:46:08.075Z,99.90
2023-09-18T18:48:37.028Z,99.90
2023-09-18T18:51:18.261Z,99.90
2023-09-18T18:53:50.518Z,99.90
2023-09-18T18:56:20.045Z,99.90
2023-09-18T18:58:50.980Z,99.90
2023-09-18T19:01:24.817Z,99.90
2023-09-18T19:03:54.973Z,99.90
2023-09-18T19:06:24.376Z,99.90
2023-09-18T19:08:55.034Z,99.90
2023-09-18T19:11:23.861Z,99.90
2023-09-18T19:13:52.942Z,99.90
2023-09-18T19:16:22.587Z,99.90
2023-09-18T19:18:52.787Z,99.90
2023-09-18T19:21:21.647Z,99.90
2023-09-18T19:23:50.487Z,99.90
2023-09-18T19:26:22.660Z,99.90
2023-09-18T19:28:52.422Z,99.90
2023-09-18T19:31:22.251Z,99.90
2023-09-18T19:33:51.278Z,99.90
2023-09-18T19:36:20.146Z,99.90
2023-09-18T19:38:49.157Z,99.90
2023-09-18T19:41:18.100Z,99.90
2023-09-18T19:43:48.565Z,99.90
2023-09-18T19:46:18.699Z,99.90
2023-09-18T19:48:47.797Z,99.90
2023-09-18T19:51:16.650Z,99.90
2023-09-18T19:53:45.598Z,99.90
2023-09-18T19:56:14.799Z,99.90
2023-09-18T19:58:44.161Z,99.90
2023-09-18T20:01:14.848Z,99.90
2023-09-18T20:03:43.786Z,99.90
2023-09-18T20:06:12.685Z,99.90
2023-09-18T20:08:42.689Z,99.90
2023-09-18T20:11:13.084Z,99.90
2023-09-18T20:13:41.758Z,99.90
2023-09-18T20:16:10.757Z,99.90
2023-09-18T20:18:41.191Z,99.90
2023-09-18T20:21:13.281Z,99.90
2023-09-18T20:23:42.933Z,99.90
2023-09-18T20:26:11.791Z,99.90
2023-09-18T20:28:42.012Z,99.90
2023-09-18T20:31:10.933Z,99.90
2023-09-18T20:33:41.338Z,99.90
2023-09-18T20:36:10.844Z,99.90
2023-09-18T20:38:40.328Z,99.90
2023-09-18T20:41:09.221Z,99.90
2023-09-18T20:43:42.225Z,99.90
2023-09-18T20:46:11.111Z,99.90
2023-09-18T20:48:41.480Z,99.90
2023-09-18T20:51:10.581Z,99.90
2023-09-18T20:53:39.317Z,99.90
2023-09-18T20:56:08.198Z,99.90
2023-09-18T20:58:37.907Z,99.90
2023-09-18T21:01:06.893Z,99.90
2023-09-18T21:03:36.176Z,99.90
2023-09-18T21:06:07.268Z,99.90
2023-09-18T21:08:36.400Z,99.90
2023-09-18T21:11:05.628Z,99.90
2023-09-18T21:13:34.458Z,99.90
2023-09-18T21:16:04.643Z,99.90
2023-09-18T21:18:33.440Z,99.90
2023-09-18T21:21:05.013Z,99.90
2023-09-18T21:23:35.359Z,99.90
2023-09-18T21:26:05.329Z,99.90
2023-09-18T21:28:34.519Z,99.90
2023-09-18T21:31:10.299Z,99.90
2023-09-18T21:33:39.284Z,99.90
2023-09-18T21:36:15.257Z,99.90
2023-09-18T21:38:45.999Z,99.90
2023-09-18T21:41:15.345Z,99.90
2023-09-18T21:43:43.926Z,99.90
2023-09-18T21:46:14.012Z,99.90
2023-09-18T21:48:43.431Z,99.90
2023-09-18T21:51:18.180Z,99.90
2023-09-18T21:53:50.787Z,99.90
2023-09-18T21:56:19.587Z,99.90
2023-09-18T21:58:48.319Z,99.90
2023-09-18T22:01:17.217Z,99.90
2023-09-18T22:03:47.629Z,99.90
2023-09-18T22:06:16.743Z,99.90
2023-09-18T22:08:45.673Z,99.90
2023-09-18T22:11:16.089Z,99.90
2023-09-18T22:13:44.955Z,99.90
2023-09-18T22:16:14.524Z,99.90
2023-09-18T22:18:44.692Z,99.90
2023-09-18T22:21:13.945Z,99.90
2023-09-18T22:23:43.914Z,99.90
2023-09-18T22:26:13.006Z,99.90
2023-09-18T22:28:44.675Z,99.90
2023-09-18T22:31:20.047Z,99.90
2023-09-18T22:33:50.276Z,99.90
2023-09-18T22:36:27.415Z,99.90
2023-09-18T22:39:05.735Z,99.90
2023-09-18T22:41:34.511Z,99.90
2023-09-18T22:44:44.160Z,99.90
2023-09-18T22:47:51.552Z,99.90
2023-09-18T22:50:57.973Z,99.90
2023-09-18T22:53:26.890Z,99.90
2023-09-18T22:55:57.970Z,99.90
2023-09-18T22:58:29.751Z,99.90
2023-09-18T23:00:59.801Z,99.90
2023-09-18T23:03:28.724Z,99.90
2023-09-18T23:05:58.711Z,99.90
2023-09-18T23:08:28.399Z,99.90
2023-09-18T23:11:01.737Z,99.90
2023-09-18T23:13:30.648Z,99.90
2023-09-18T23:16:00.293Z,99.90
2023-09-18T23:18:29.754Z,99.90
2023-09-18T23:21:00.568Z,99.90
2023-09-18T23:23:30.140Z,99.90
2023-09-18T23:26:00.345Z,99.90
2023-09-18T23:28:29.133Z,99.90
2023-09-18T23:30:59.908Z,99.90
2023-09-18T23:33:29.233Z,99.90
2023-09-18T23:35:58.982Z,99.90
2023-09-18T23:38:28.157Z,99.90
2023-09-18T23:40:59.215Z,99.90
2023-09-18T23:43:35.221Z,99.90
2023-09-18T23:46:15.421Z,99.90
2023-09-18T23:48:46.956Z,99.90
2023-09-18T23:51:15.830Z,99.90
2023-09-18T23:53:44.574Z,99.90
2023-09-18T23:56:14.194Z,99.90
2023-09-18T23:58:44.776Z,99.90
